Time;durP1;ratioP1;P1;durP2;ratioP2;P2;SDS_P1;SDS_P2;PMS_P1;PMS_P2;Temp;Humidity;BMP_temperature;BMP_pressure;BME280_temperature;BME280_humidity;BME280_pressure;Samples;Min_cycle;Max_cycle;Signal;HPM_P1;HPM_P2
2022/10/12 00:00:55;;;;;;;8.60;2.50;;;10.00;1.00;;;;;;10427782;28;20579;-84
2022/10/12 00:06:22;;;;;;;4.90;2.17;;;10.00;1.00;;;;;;10455434;28;20197;-84
2022/10/12 00:11:43;;;;;;;9.33;2.63;;;10.00;1.00;;;;;;10441471;28;20227;-89
2022/10/12 00:17:05;;;;;;;6.90;2.90;;;10.00;1.00;;;;;;10440646;28;20198;-86
2022/10/12 00:22:26;;;;;;;9.27;3.70;;;10.00;1.00;;;;;;10441074;28;20214;-86
2022/10/12 00:27:47;;;;;;;5.73;2.40;;;10.00;1.00;;;;;;10441054;28;20241;-87
2022/10/12 00:33:09;;;;;;;7.33;2.67;;;10.00;1.00;;;;;;10423217;28;20255;-88
2022/10/12 00:38:30;;;;;;;3.97;1.90;;;10.00;1.00;;;;;;10404286;28;20224;-85
2022/10/12 00:43:53;;;;;;;4.97;2.20;;;10.00;19.60;;;;;;10401653;28;20491;-85
2022/10/12 00:49:20;;;;;;;6.80;1.90;;;10.00;42.40;;;;;;10399099;28;20273;-88
2022/10/12 00:54:45;;;;;;;6.17;2.07;;;10.00;87.70;;;;;;10398967;28;20573;-86
2022/10/12 01:00:09;;;;;;;8.17;3.27;;;10.00;60.00;;;;;;10412669;28;20212;-87
2022/10/12 01:05:32;;;;;;;6.60;3.47;;;10.00;99.90;;;;;;10398493;28;20236;-84
2022/10/12 01:10:54;;;;;;;9.07;2.67;;;9.90;94.40;;;;;;10411810;28;20224;-85
2022/10/12 01:16:34;;;;;;;8.23;2.60;;;9.80;99.90;;;;;;10442486;28;20245;-89
2022/10/12 01:22:04;;;;;;;9.97;3.80;;;9.70;99.90;;;;;;10449505;28;20202;-86
2022/10/12 01:27:41;;;;;;;9.40;3.00;;;9.60;99.90;;;;;;10396274;28;20198;-87
2022/10/12 01:33:22;;;;;;;6.83;2.60;;;9.50;99.90;;;;;;10388904;28;20225;-87
2022/10/12 01:38:54;;;;;;;8.17;2.87;;;9.50;99.90;;;;;;10397102;28;20220;-87
2022/10/12 01:44:23;;;;;;;11.30;2.67;;;9.50;99.90;;;;;;10416485;28;20192;-86
2022/10/12 01:49:45;;;;;;;7.10;2.43;;;9.60;99.90;;;;;;10369197;28;20223;-88
2022/10/12 01:55:06;;;;;;;9.23;2.90;;;9.60;99.90;;;;;;10412619;28;20189;-88
2022/10/12 02:00:34;;;;;;;5.17;2.50;;;9.60;99.90;;;;;;10399018;28;20212;-87
2022/10/12 02:06:07;;;;;;;6.27;2.67;;;9.50;99.90;;;;;;10398717;28;20206;-87
2022/10/12 02:11:29;;;;;;;6.23;2.50;;;9.40;99.90;;;;;;10383068;28;20299;-86
2022/10/12 02:16:58;;;;;;;6.40;3.27;;;9.30;99.90;;;;;;10409591;28;20222;-85
2022/10/12 02:22:20;;;;;;;11.37;3.80;;;9.20;99.90;;;;;;10453859;28;20198;-84
2022/10/12 02:27:45;;;;;;;7.50;2.80;;;9.20;99.90;;;;;;10439200;28;20234;-85
2022/10/12 02:33:16;;;;;;;8.17;2.80;;;9.20;99.90;;;;;;10400637;28;20254;-86
2022/10/12 02:38:50;;;;;;;10.37;3.13;;;9.20;99.90;;;;;;10414337;28;20200;-87
2022/10/12 02:44:16;;;;;;;10.53;3.10;;;9.30;99.90;;;;;;10446610;28;20237;-85
2022/10/12 02:49:40;;;;;;;11.87;3.00;;;9.30;96.60;;;;;;10436627;28;20226;-85
2022/10/12 02:55:01;;;;;;;11.97;3.20;;;9.30;99.50;;;;;;10436637;28;20199;-87
2022/10/12 03:00:23;;;;;;;8.50;3.20;;;9.30;86.20;;;;;;10435932;28;20199;-84
2022/10/12 03:05:45;;;;;;;5.17;2.63;;;9.30;96.00;;;;;;10435957;28;20195;-85
2022/10/12 03:11:11;;;;;;;13.20;6.63;;;9.30;99.90;;;;;;10437399;28;20231;-89
2022/10/12 03:16:32;;;;;;;10.23;4.70;;;9.40;99.90;;;;;;10425410;28;20445;-87
2022/10/12 03:21:54;;;;;;;9.37;3.17;;;9.40;99.90;;;;;;10389175;28;20360;-85
2022/10/12 03:27:15;;;;;;;6.30;3.03;;;9.40;91.40;;;;;;10430107;28;20195;-87
2022/10/12 03:32:38;;;;;;;12.07;5.57;;;9.30;99.90;;;;;;10412255;28;20222;-85
2022/10/12 03:37:59;;;;;;;9.00;3.70;;;9.30;99.90;;;;;;10407482;28;20387;-85
2022/10/12 03:43:21;;;;;;;9.17;3.60;;;9.30;99.90;;;;;;10414258;28;20203;-86
2022/10/12 03:48:43;;;;;;;10.00;3.00;;;9.30;99.90;;;;;;10428636;28;20206;-83
2022/10/12 03:54:04;;;;;;;10.30;3.87;;;9.40;99.90;;;;;;10445541;28;20246;-88
2022/10/12 03:59:25;;;;;;;10.70;2.93;;;9.40;99.90;;;;;;10464711;28;20198;-84
2022/10/12 04:04:47;;;;;;;8.40;3.07;;;9.40;99.90;;;;;;10456477;28;20454;-88
2022/10/12 04:10:08;;;;;;;7.67;3.13;;;9.40;99.90;;;;;;10430949;28;20214;-85
2022/10/12 04:15:30;;;;;;;10.70;3.30;;;9.40;99.90;;;;;;10400155;28;20201;-84
2022/10/12 04:20:51;;;;;;;9.60;3.00;;;9.50;99.90;;;;;;10429699;28;20202;-84
2022/10/12 04:26:12;;;;;;;10.33;2.73;;;9.50;99.90;;;;;;10441863;28;20198;-85
2022/10/12 04:31:34;;;;;;;6.07;2.83;;;9.50;99.90;;;;;;10436800;28;20318;-85
2022/10/12 04:36:55;;;;;;;8.10;2.93;;;9.40;99.90;;;;;;10372237;28;20196;-84
2022/10/12 04:42:17;;;;;;;6.17;2.87;;;9.40;99.90;;;;;;10419191;28;20231;-85
2022/10/12 04:47:39;;;;;;;8.77;3.37;;;9.40;99.90;;;;;;10401036;28;20222;-84
2022/10/12 04:53:00;;;;;;;11.97;3.47;;;9.40;99.90;;;;;;10386114;28;20260;-86
2022/10/12 04:58:22;;;;;;;6.47;3.37;;;9.40;99.90;;;;;;10391397;28;20201;-84
2022/10/12 05:03:43;;;;;;;17.70;4.93;;;9.50;99.90;;;;;;10401777;28;20204;-87
2022/10/12 05:09:05;;;;;;;9.97;5.27;;;9.50;99.90;;;;;;10390770;28;20209;-86
2022/10/12 05:14:26;;;;;;;11.93;5.83;;;9.50;99.90;;;;;;10439111;28;20234;-86
2022/10/12 05:19:50;;;;;;;15.63;8.20;;;9.60;99.90;;;;;;10424649;28;20217;-84
2022/10/12 05:25:11;;;;;;;16.50;8.53;;;9.50;99.90;;;;;;10452627;28;20193;-88
2022/10/12 05:30:33;;;;;;;8.10;5.30;;;9.60;99.90;;;;;;10443799;28;20263;-87
2022/10/12 05:35:55;;;;;;;11.77;3.73;;;9.60;99.90;;;;;;10409696;28;20412;-85
2022/10/12 05:41:17;;;;;;;11.63;3.60;;;9.60;99.90;;;;;;10411760;28;20199;-83
2022/10/12 05:46:40;;;;;;;9.40;3.30;;;9.60;99.90;;;;;;10442446;28;20245;-88
2022/10/12 05:52:01;;;;;;;8.57;3.67;;;9.70;99.90;;;;;;10439781;28;20230;-85
2022/10/12 05:57:23;;;;;;;13.70;3.77;;;9.80;99.90;;;;;;10435867;28;20202;-85
2022/10/12 06:02:44;;;;;;;8.77;3.27;;;9.80;99.90;;;;;;10429078;28;20192;-86
2022/10/12 06:08:07;;;;;;;10.03;3.10;;;9.90;99.90;;;;;;10442025;28;20197;-84
2022/10/12 06:13:29;;;;;;;10.00;3.27;;;9.90;99.90;;;;;;10425552;28;20272;-85
2022/10/12 06:18:52;;;;;;;11.30;3.23;;;9.80;99.90;;;;;;10445598;28;20192;-84
2022/10/12 06:24:17;;;;;;;8.37;3.13;;;9.90;99.90;;;;;;10474541;28;20203;-84
2022/10/12 06:29:41;;;;;;;8.33;3.53;;;10.10;99.90;;;;;;10392194;28;20257;-85
2022/10/12 06:35:04;;;;;;;13.43;4.23;;;10.30;99.90;;;;;;10380303;28;20400;-86
2022/10/12 06:40:26;;;;;;;9.40;3.97;;;10.30;99.90;;;;;;10405217;28;20560;-89
2022/10/12 06:45:50;;;;;;;11.17;4.00;;;10.40;99.90;;;;;;10379703;28;20257;-85
2022/10/12 06:51:18;;;;;;;9.77;4.20;;;10.50;99.90;;;;;;10399206;28;20215;-86
2022/10/12 06:56:55;;;;;;;11.37;3.90;;;10.50;99.90;;;;;;10413902;28;20197;-83
2022/10/12 07:02:21;;;;;;;14.50;4.07;;;10.70;92.60;;;;;;10422965;28;20432;-85
2022/10/12 07:07:44;;;;;;;11.30;4.03;;;10.80;75.50;;;;;;10403852;28;20201;-89
2022/10/12 07:13:05;;;;;;;14.17;4.80;;;10.70;88.10;;;;;;10466054;28;20247;-85
2022/10/12 07:18:27;;;;;;;13.83;4.77;;;10.70;78.60;;;;;;10423422;28;20281;-85
2022/10/12 07:23:48;;;;;;;14.90;4.07;;;10.70;99.90;;;;;;10444439;28;20254;-82
2022/10/12 07:29:10;;;;;;;14.30;4.90;;;10.80;95.00;;;;;;10466450;28;20228;-87
2022/10/12 07:34:31;;;;;;;13.50;4.77;;;10.80;99.70;;;;;;10442773;28;20238;-85
2022/10/12 07:39:56;;;;;;;14.30;4.70;;;10.90;95.30;;;;;;10443692;28;20646;-87
2022/10/12 07:45:17;;;;;;;9.00;3.70;;;11.00;99.90;;;;;;10389597;28;20244;-88
2022/10/12 07:50:42;;;;;;;8.53;3.83;;;11.10;99.90;;;;;;10425895;28;20774;-86
2022/10/12 07:56:08;;;;;;;9.33;3.77;;;11.30;99.90;;;;;;10460869;28;20197;-88
2022/10/12 08:01:30;;;;;;;18.67;4.00;;;11.80;39.00;;;;;;10474620;28;20205;-87
2022/10/12 08:06:52;;;;;;;10.83;3.07;;;12.30;1.00;;;;;;10429337;28;20237;-88
2022/10/12 08:12:13;;;;;;;13.17;4.30;;;13.10;1.00;;;;;;10433065;28;20458;-86
2022/10/12 08:17:35;;;;;;;10.88;4.43;;;;;;;;;;10443255;28;20240;-85
2022/10/12 08:22:57;;;;;;;12.00;3.60;;;14.60;99.90;;;;;;10440587;28;20220;-84
2022/10/12 08:28:19;;;;;;;10.32;3.17;;;;;;;;;;10477745;28;20251;-89
2022/10/12 08:33:43;;;;;;;9.27;3.95;;;;;;;;;;10464526;28;20223;-84
2022/10/12 08:39:05;;;;;;;8.68;2.97;;;17.70;93.50;;;;;;10422603;28;20181;-89
2022/10/12 08:44:53;;;;;;;4.10;2.15;;;18.90;88.40;;;;;;10421044;28;20200;-89
2022/10/12 08:50:38;;;;;;;6.70;2.35;;;19.50;90.40;;;;;;10442193;28;20209;-88
2022/10/12 08:56:00;;;;;;;9.05;2.63;;;18.40;93.90;;;;;;10442363;28;20200;-91
2022/10/12 09:01:48;;;;;;;9.50;2.05;;;16.90;95.30;;;;;;10446260;28;20219;-87
2022/10/12 09:07:27;;;;;;;6.10;1.67;;;15.70;95.30;;;;;;10469798;28;20244;-87
2022/10/12 09:13:21;;;;;;;9.15;3.60;;;16.30;93.00;;;;;;10439853;28;20241;-85
2022/10/12 09:18:56;;;;;;;6.38;2.25;;;16.10;93.10;;;;;;10383096;28;20372;-85
2022/10/12 09:24:32;;;;;;;8.75;2.75;;;15.60;95.10;;;;;;10414331;28;20530;-84
2022/10/12 09:29:57;;;;;;;4.90;2.00;;;;;;;;;;10490814;28;20243;-86
2022/10/12 09:35:19;;;;;;;6.30;3.17;;;;;;;;;;10399912;28;20240;-91
2022/10/12 09:40:40;;;;;;;10.95;2.70;;;14.80;1.00;;;;;;10400708;28;20211;-90
2022/10/12 09:46:09;;;;;;;10.02;2.10;;;14.70;1.00;;;;;;10409085;28;20211;-90
2022/10/12 09:51:31;;;;;;;7.88;2.28;;;14.30;99.90;;;;;;10435080;28;20227;-88
2022/10/12 09:56:54;;;;;;;5.38;2.20;;;14.10;1.00;;;;;;10421867;28;20244;-88
2022/10/12 10:02:18;;;;;;;7.43;2.38;;;14.80;1.00;;;;;;10428736;28;20196;-87
2022/10/12 10:07:39;;;;;;;8.35;2.13;;;16.90;99.90;;;;;;10453678;28;20227;-88
2022/10/12 10:13:02;;;;;;;5.32;1.45;;;17.60;1.00;;;;;;10461501;28;20227;-90
2022/10/12 10:18:46;;;;;;;5.47;1.77;;;18.40;99.90;;;;;;10379418;28;20220;-86
2022/10/12 10:24:24;;;;;;;6.03;1.55;;;17.90;1.00;;;;;;10420881;28;20311;-86
2022/10/12 10:29:45;;;;;;;5.15;1.30;;;16.70;99.90;;;;;;10411444;28;20231;-89
2022/10/12 10:35:11;;;;;;;6.03;1.63;;;16.00;99.90;;;;;;10402922;28;20299;-87
2022/10/12 10:40:33;;;;;;;4.57;2.17;;;17.50;1.00;;;;;;10432305;28;20486;-89
2022/10/12 10:45:59;;;;;;;7.05;1.90;;;;;;;;;;10439265;28;20200;-86
2022/10/12 10:51:21;;;;;;;7.38;4.15;;;;;;;;;;10407533;28;20224;-88
2022/10/12 10:56:45;;;;;;;6.00;2.85;;;;;;;;;;10377496;28;20208;-89
2022/10/12 11:02:18;;;;;;;6.82;2.05;;;18.30;1.00;;;;;;10392523;28;20211;-90
2022/10/12 11:08:01;;;;;;;2.28;1.10;;;17.20;9.90;;;;;;10410725;28;20548;-84
2022/10/12 11:13:28;;;;;;;5.75;1.60;;;16.40;1.00;;;;;;10465075;28;20226;-87
2022/10/12 11:18:55;;;;;;;5.53;1.63;;;15.70;99.90;;;;;;10449297;28;20199;-90
2022/10/12 11:24:37;;;;;;;7.13;1.50;;;15.30;1.00;;;;;;10447922;28;20212;-86
2022/10/12 11:30:03;;;;;;;4.70;1.70;;;15.20;1.00;;;;;;10489150;28;20252;-85
2022/10/12 11:35:49;;;;;;;9.10;1.90;;;15.10;99.90;;;;;;10427138;28;20687;-86
2022/10/12 11:41:27;;;;;;;2.75;1.40;;;14.90;1.00;;;;;;10471027;28;20219;-86
2022/10/12 11:47:28;;;;;;;14.73;2.85;;;14.70;1.00;;;;;;10459479;28;20227;-84
2022/10/12 11:52:52;;;;;;;5.05;1.77;;;14.80;23.40;;;;;;10448337;28;20416;-83
2022/10/12 11:58:27;;;;;;;4.03;1.60;;;14.60;99.90;;;;;;10466169;28;20501;-83
2022/10/12 12:04:20;;;;;;;3.45;1.20;;;14.70;99.90;;;;;;10488330;28;20237;-89
2022/10/12 12:10:33;;;;;;;7.07;2.25;;;14.70;1.00;;;;;;10464704;28;20207;-85
2022/10/12 12:15:54;;;;;;;4.88;1.98;;;14.80;61.30;;;;;;10439359;28;20518;-85
2022/10/12 12:21:16;;;;;;;3.17;1.85;;;14.90;1.00;;;;;;10409288;28;20204;-85
2022/10/12 12:26:46;;;;;;;11.60;1.92;;;15.00;1.00;;;;;;10459275;28;20203;-87
2022/10/12 12:32:07;;;;;;;3.78;1.58;;;15.00;1.00;;;;;;10487919;28;20322;-84
2022/10/12 12:37:33;;;;;;;5.13;1.42;;;15.00;99.90;;;;;;10428356;28;20553;-89
2022/10/12 12:43:18;;;;;;;6.10;1.70;;;14.90;1.00;;;;;;10454986;28;20282;-88
2022/10/12 12:48:43;;;;;;;3.85;1.10;;;14.80;99.90;;;;;;10472524;28;20229;-85
2022/10/12 12:54:15;;;;;;;5.00;1.33;;;14.80;1.00;;;;;;10477547;28;20216;-94
2022/10/12 13:00:03;;;;;;;4.65;1.42;;;14.70;99.90;;;;;;10437706;28;20631;-89
2022/10/12 13:05:51;;;;;;;5.23;1.87;;;14.70;99.90;;;;;;10423463;28;20228;-90
2022/10/12 13:11:38;;;;;;;7.00;2.58;;;14.60;1.00;;;;;;10424799;28;20243;-83
2022/10/12 13:17:17;;;;;;;4.50;2.22;;;14.50;1.00;;;;;;10410775;28;20199;-86
2022/10/12 13:22:56;;;;;;;4.85;1.67;;;14.50;99.90;;;;;;10447208;28;20210;-88
2022/10/12 13:28:23;;;;;;;4.03;1.20;;;14.40;1.00;;;;;;10446731;28;20263;-87
2022/10/12 13:34:06;;;;;;;8.13;1.30;;;14.30;1.00;;;;;;10409726;28;20235;-87
2022/10/12 13:39:29;;;;;;;3.65;1.25;;;14.30;1.00;;;;;;10440696;28;20214;-87
2022/10/12 13:44:51;;;;;;;4.65;1.50;;;14.20;1.00;;;;;;10436961;28;20264;-88
2022/10/12 13:50:18;;;;;;;4.00;1.60;;;14.20;1.00;;;;;;10446315;28;20209;-89
2022/10/12 13:55:39;;;;;;;4.47;1.77;;;14.20;1.00;;;;;;10452361;28;20239;-88
2022/10/12 14:01:02;;;;;;;8.25;1.95;;;14.30;99.90;;;;;;10438670;28;20206;-89
2022/10/12 14:06:46;;;;;;;5.97;1.58;;;14.30;63.20;;;;;;10428443;28;20209;-88
2022/10/12 14:12:09;;;;;;;3.23;1.37;;;14.30;99.90;;;;;;10459752;28;20433;-88
2022/10/12 14:17:30;;;;;;;5.78;1.55;;;14.30;1.00;;;;;;10422730;28;20207;-87
2022/10/12 14:22:52;;;;;;;7.23;1.83;;;14.20;1.00;;;;;;10415591;28;20207;-89
2022/10/12 14:28:27;;;;;;;5.93;1.53;;;14.20;4.50;;;;;;10455429;28;20242;-88
2022/10/12 14:33:48;;;;;;;5.57;1.90;;;14.10;1.00;;;;;;10439292;28;20248;-86
2022/10/12 14:39:12;;;;;;;9.53;1.90;;;14.10;1.00;;;;;;10474420;28;20277;-88
2022/10/12 14:44:43;;;;;;;4.53;1.80;;;14.10;1.00;;;;;;10458596;28;20202;-88
2022/10/12 14:50:07;;;;;;;5.47;1.83;;;13.90;99.90;;;;;;10493093;28;20483;-88
2022/10/12 14:55:31;;;;;;;6.70;3.97;;;13.80;1.00;;;;;;10435187;28;20222;-89
2022/10/12 15:00:53;;;;;;;3.93;1.53;;;13.80;1.00;;;;;;10439244;28;20574;-89
2022/10/12 15:06:15;;;;;;;5.90;2.67;;;13.70;1.00;;;;;;10459669;28;20275;-91
2022/10/12 15:11:36;;;;;;;4.47;2.23;;;13.70;1.00;;;;;;10431233;28;20242;-85
2022/10/12 15:16:59;;;;;;;6.03;2.47;;;13.50;99.90;;;;;;10443429;28;20298;-86
2022/10/12 15:22:25;;;;;;;5.23;2.70;;;13.50;97.50;;;;;;10430755;28;20206;-86
2022/10/12 15:27:46;;;;;;;6.43;2.30;;;13.40;29.20;;;;;;10492090;28;20314;-85
2022/10/12 15:33:11;;;;;;;18.23;11.43;;;13.30;99.90;;;;;;10485834;28;20306;-85
2022/10/12 15:38:34;;;;;;;19.40;10.82;;;13.30;1.00;;;;;;10443502;28;20198;-84
2022/10/12 15:43:56;;;;;;;29.23;13.93;;;13.20;1.00;;;;;;10443076;28;20218;-85
2022/10/12 15:49:19;;;;;;;23.97;13.77;;;13.10;1.00;;;;;;10456690;28;20207;-83
2022/10/12 15:54:40;;;;;;;19.17;11.23;;;13.00;1.00;;;;;;10453902;28;20229;-85
2022/10/12 16:00:03;;;;;;;12.87;7.87;;;13.00;1.00;;;;;;10456350;28;20204;-84
2022/10/12 16:05:36;;;;;;;17.27;9.40;;;12.90;1.00;;;;;;10490553;28;20208;-86
2022/10/12 16:10:57;;;;;;;33.97;17.43;;;12.80;1.00;;;;;;10486361;28;20252;-85
2022/10/12 16:16:19;;;;;;;36.13;18.33;;;12.80;1.00;;;;;;10455101;28;20201;-86
2022/10/12 16:21:40;;;;;;;43.13;21.20;;;12.70;99.90;;;;;;10462829;28;20198;-85
2022/10/12 16:27:22;;;;;;;27.90;13.97;;;12.60;99.90;;;;;;10467862;28;20449;-85
2022/10/12 16:32:43;;;;;;;24.13;11.80;;;12.50;1.00;;;;;;10498666;28;20236;-86
2022/10/12 16:38:05;;;;;;;14.30;8.23;;;12.50;99.90;;;;;;10401146;28;20205;-85
2022/10/12 16:43:26;;;;;;;15.97;6.63;;;12.40;99.90;;;;;;10413998;28;20509;-85
2022/10/12 16:48:48;;;;;;;13.07;5.87;;;12.30;99.90;;;;;;10444471;28;20195;-85
2022/10/12 16:54:09;;;;;;;9.53;5.40;;;12.30;1.00;;;;;;10485016;28;20232;-86
2022/10/12 16:59:30;;;;;;;19.10;9.70;;;12.10;99.90;;;;;;10466610;28;20385;-85
2022/10/12 17:04:52;;;;;;;36.73;21.30;;;12.10;99.90;;;;;;10445696;28;20205;-84
2022/10/12 17:10:13;;;;;;;49.47;28.10;;;12.10;99.90;;;;;;10490675;28;20202;-85
2022/10/12 17:15:39;;;;;;;80.97;44.90;;;12.00;1.00;;;;;;10479652;28;20221;-85
2022/10/12 17:21:00;;;;;;;79.53;45.73;;;;;;;;;;10478676;28;20195;-86
2022/10/12 17:26:22;;;;;;;69.90;39.27;;;11.80;1.00;;;;;;10472726;28;20300;-85
2022/10/12 17:31:44;;;;;;;67.17;39.20;;;11.80;1.00;;;;;;10492711;28;20291;-86
2022/10/12 17:37:09;;;;;;;69.90;40.47;;;11.50;1.00;;;;;;10459818;28;20273;-86
2022/10/12 17:42:30;;;;;;;78.90;45.40;;;11.60;1.00;;;;;;10454070;28;20226;-86
2022/10/12 17:47:51;;;;;;;77.23;44.63;;;11.50;1.00;;;;;;10438079;28;20496;-85
2022/10/12 17:53:13;;;;;;;81.13;44.30;;;11.40;1.00;;;;;;10440530;28;20416;-85
2022/10/12 17:58:36;;;;;;;77.60;44.57;;;11.40;1.00;;;;;;10437499;28;20194;-85
2022/10/12 18:04:02;;;;;;;82.67;49.27;;;11.40;1.00;;;;;;10464766;28;20202;-86
2022/10/12 18:09:23;;;;;;;88.57;51.77;;;11.30;1.00;;;;;;10451150;28;20488;-86
2022/10/12 18:14:45;;;;;;;92.87;49.30;;;11.20;1.00;;;;;;10464336;28;20258;-85
2022/10/12 18:20:07;;;;;;;76.80;44.33;;;11.20;1.00;;;;;;10428106;28;20191;-85
2022/10/12 18:25:28;;;;;;;54.97;32.60;;;11.20;1.00;;;;;;10401060;28;20402;-85
2022/10/12 18:30:50;;;;;;;40.20;24.87;;;11.20;1.00;;;;;;10395357;28;20557;-84
2022/10/12 18:36:12;;;;;;;50.40;28.47;;;11.10;1.00;;;;;;10434241;28;20227;-85
2022/10/12 18:41:33;;;;;;;58.23;33.73;;;11.10;1.00;;;;;;10450834;28;20205;-86
2022/10/12 18:46:54;;;;;;;57.37;33.57;;;11.10;1.00;;;;;;10456759;28;20371;-86
2022/10/12 18:52:16;;;;;;;48.53;29.87;;;11.00;1.00;;;;;;10491567;28;20572;-87
2022/10/12 18:57:37;;;;;;;46.77;29.23;;;11.00;1.00;;;;;;10448997;28;20487;-86
2022/10/12 19:02:59;;;;;;;56.93;31.27;;;10.90;1.00;;;;;;10437175;28;20192;-86
2022/10/12 19:08:21;;;;;;;73.87;42.80;;;10.90;1.00;;;;;;10436182;28;20193;-85
2022/10/12 19:13:43;;;;;;;71.37;44.70;;;10.70;1.00;;;;;;10408280;28;20228;-85
2022/10/12 19:19:11;;;;;;;98.87;54.27;;;10.70;1.00;;;;;;10434536;28;20307;-86
2022/10/12 19:24:34;;;;;;;109.80;59.20;;;10.60;1.00;;;;;;10444687;28;20203;-86
2022/10/12 19:29:56;;;;;;;133.03;68.73;;;10.50;1.00;;;;;;10482382;28;20251;-85
2022/10/12 19:35:19;;;;;;;140.67;73.30;;;10.50;1.00;;;;;;10469598;28;20228;-85
2022/10/12 19:40:41;;;;;;;154.97;80.37;;;10.50;1.00;;;;;;10473785;28;20405;-85
2022/10/12 19:46:05;;;;;;;125.00;66.20;;;10.30;1.00;;;;;;10479267;28;20246;-86
2022/10/12 19:51:29;;;;;;;125.37;65.10;;;10.30;11.90;;;;;;10448716;28;20207;-85
2022/10/12 19:56:50;;;;;;;117.00;57.40;;;10.20;18.80;;;;;;10499709;28;20207;-85
2022/10/12 20:02:12;;;;;;;96.30;52.20;;;10.10;22.60;;;;;;10503160;28;20278;-86
2022/10/12 20:07:34;;;;;;;108.73;55.50;;;10.00;4.50;;;;;;10483619;28;20209;-86
2022/10/12 20:12:55;;;;;;;90.20;45.20;;;9.80;15.40;;;;;;10430914;28;20307;-85
2022/10/12 20:18:18;;;;;;;79.53;40.47;;;;;;;;;;10414998;28;20255;-85
2022/10/12 20:23:41;;;;;;;64.13;34.90;;;9.70;49.30;;;;;;10416764;28;20203;-86
2022/10/12 20:29:03;;;;;;;64.37;32.17;;;9.50;12.80;;;;;;10470750;28;20226;-85
2022/10/12 20:34:24;;;;;;;66.17;36.00;;;9.30;21.00;;;;;;10413025;28;20308;-85
2022/10/12 20:39:48;;;;;;;61.27;33.83;;;9.30;18.70;;;;;;10475008;28;20189;-85
2022/10/12 20:45:13;;;;;;;62.40;30.90;;;9.20;11.10;;;;;;10467858;28;20391;-85
2022/10/12 20:50:36;;;;;;;43.63;25.77;;;9.20;7.00;;;;;;10453086;28;20507;-85
2022/10/12 20:55:57;;;;;;;46.00;26.60;;;9.20;4.90;;;;;;10442279;28;20250;-85
2022/10/12 21:01:18;;;;;;;39.20;24.23;;;9.10;25.60;;;;;;10425883;28;20247;-85
2022/10/12 21:06:41;;;;;;;41.23;25.07;;;9.10;1.00;;;;;;10411283;28;20248;-86
2022/10/12 21:12:02;;;;;;;40.27;25.23;;;9.10;3.90;;;;;;10453550;28;20256;-85
2022/10/12 21:17:24;;;;;;;37.70;23.00;;;9.10;11.20;;;;;;10458777;28;20222;-85
2022/10/12 21:22:45;;;;;;;37.87;23.47;;;9.10;9.50;;;;;;10458124;28;20428;-85
2022/10/12 21:28:07;;;;;;;47.80;29.53;;;9.20;10.70;;;;;;10427631;28;20233;-85
2022/10/12 21:33:28;;;;;;;75.97;41.70;;;9.20;28.30;;;;;;10424577;28;20228;-85
2022/10/12 21:38:49;;;;;;;83.37;44.10;;;9.30;36.20;;;;;;10455404;28;20205;-85
2022/10/12 21:44:11;;;;;;;69.67;38.43;;;9.30;30.50;;;;;;10427988;28;20224;-85
2022/10/12 21:49:32;;;;;;;71.30;41.67;;;9.30;36.30;;;;;;10446163;28;20263;-84
2022/10/12 21:54:54;;;;;;;71.87;41.97;;;9.40;36.70;;;;;;10456131;28;20613;-85
2022/10/12 22:00:15;;;;;;;96.63;48.80;;;9.30;34.70;;;;;;10418275;28;20273;-85
2022/10/12 22:05:41;;;;;;;90.40;48.30;;;9.30;35.10;;;;;;10440225;28;20495;-85
2022/10/12 22:11:05;;;;;;;93.47;49.97;;;9.40;37.40;;;;;;10423513;28;20195;-85
2022/10/12 22:16:28;;;;;;;105.33;55.90;;;9.20;33.60;;;;;;10422790;28;20452;-84
2022/10/12 22:21:50;;;;;;;120.13;65.03;;;9.30;28.10;;;;;;10409129;28;20198;-85
2022/10/12 22:27:12;;;;;;;115.33;62.50;;;9.20;29.70;;;;;;10447458;28;20196;-85
2022/10/12 22:32:33;;;;;;;110.40;60.53;;;9.30;27.70;;;;;;10490527;28;20407;-85
2022/10/12 22:37:55;;;;;;;104.47;56.20;;;9.20;29.70;;;;;;10436544;28;20207;-85
2022/10/12 22:43:16;;;;;;;99.10;52.57;;;9.20;23.10;;;;;;10450899;28;20499;-85
2022/10/12 22:48:38;;;;;;;98.87;48.80;;;9.20;22.70;;;;;;10469945;28;20256;-85
2022/10/12 22:54:01;;;;;;;93.77;47.33;;;9.20;16.30;;;;;;10463150;28;20302;-85
2022/10/12 22:59:23;;;;;;;81.93;42.90;;;9.10;19.40;;;;;;10395514;28;20231;-85
2022/10/12 23:04:46;;;;;;;82.07;43.60;;;9.10;21.60;;;;;;10394766;28;20529;-85
2022/10/12 23:10:07;;;;;;;92.57;47.90;;;9.10;18.20;;;;;;10395065;28;20204;-84
2022/10/12 23:15:28;;;;;;;101.73;50.83;;;9.20;25.00;;;;;;10394635;28;20232;-85
2022/10/12 23:20:50;;;;;;;95.87;49.87;;;9.30;19.10;;;;;;10394536;28;20234;-85
2022/10/12 23:26:14;;;;;;;77.33;43.07;;;9.30;18.30;;;;;;10449414;28;20223;-85
2022/10/12 23:31:35;;;;;;;67.20;36.60;;;9.30;21.00;;;;;;10414662;28;20253;-84
2022/10/12 23:36:56;;;;;;;55.63;29.70;;;9.20;20.00;;;;;;10434444;28;20271;-85
2022/10/12 23:42:17;;;;;;;51.67;25.80;;;9.20;25.60;;;;;;10470839;28;20204;-84
2022/10/12 23:47:39;;;;;;;47.53;23.60;;;9.20;17.10;;;;;;10455859;28;20202;-85
2022/10/12 23:53:00;;;;;;;38.23;21.73;;;9.20;15.50;;;;;;10500346;28;20226;-85
2022/10/12 23:58:21;;;;;;;41.37;20.80;;;9.20;20.20;;;;;;10500276;28;20203;-83
